Avocet — V7TK4 — position and weather

sailwx.info

Track history (hours):
 
Tides and Currents Weather Stations Pressure Air Temp Water Temp Dewpoint Dewpoint Depression Visibility Wind Speed Wind Dir Waves Ship Positions

Avocet

Last reported at 2017-Sep-10 04:27 UTC. Time now 2017-Nov-20 23:08 UTC.
Position N 27°36' W 016°24'.
Warning: this ship's position is months out of date.

Length 190 m; draft 11.9 m.

Type: Ship. MMSI: 538003819.

Date/timePositionNaut miles runAvg speedWind from/ knotsBaromVisibWave heightAir tempDewpointWater temp
2017-Sep-10 04:27N 27°36' W 016°24'813.1
2017-Sep-10 03:52N 27°44' W 016°22'512.7
2017-Sep-10 03:26N 27°49' W 016°21'512.7
2017-Sep-10 03:00N 27°54' W 016°19'712.3
2017-Sep-10 02:26N 28°01' W 016°17'812.3
2017-Sep-10 01:46N 28°08' W 016°12'312.6
2017-Sep-10 01:30N 28°10' W 016°10'612.7
2017-Sep-10 01:00N 28°15' W 016°05'612.7
2017-Sep-10 00:30N 28°20' W 016°01'612.5
2017-Sep-10 00:00N 28°25' W 015°56'612.1
2017-Sep-09 23:30N 28°30' W 015°52'611.8
2017-Sep-09 23:00N 28°34' W 015°48'611.7
2017-Sep-09 22:30N 28°39' W 015°44'611.8
2017-Sep-09 22:00N 28°45' W 015°42'611.7
2017-Sep-09 21:30N 28°51' W 015°41'611.6
2017-Sep-09 21:00N 28°56' W 015°39'611.5
2017-Sep-09 20:30N 29°02' W 015°37'611.5
2017-Sep-09 20:00N 29°07' W 015°35'611.5
2017-Sep-09 19:30N 29°13' W 015°33'611.6
2017-Sep-09 19:00N 29°18' W 015°31'611.7
2017-Sep-09 18:30N 29°24' W 015°29'611.7
2017-Sep-09 18:00N 29°29' W 015°27'611.4
2017-Sep-09 17:30N 29°35' W 015°26'611.5
2017-Sep-09 17:00N 29°40' W 015°24'611.6
2017-Sep-09 16:30N 29°46' W 015°22'611.7
2017-Sep-09 15:59N 29°52' W 015°20'511.5
2017-Sep-09 15:30N 29°57' W 015°18'611.4
2017-Sep-09 15:00N 30°03' W 015°17'611.4
2017-Sep-09 14:30N 30°08' W 015°15'611.5
2017-Sep-09 14:00N 30°14' W 015°13'611.3
2017-Sep-09 13:30N 30°19' W 015°11'1011.1
2017-Sep-09 12:38N 30°29' W 015°08'211.0
2017-Sep-09 12:27N 30°30' W 015°08'511.0
2017-Sep-09 12:00N 30°35' W 015°06'1111.4
2017-Sep-09 11:01N 30°46' W 015°02'011.8
2017-Sep-09 11:00N 30°46' W 015°02'7511.9
2017-Sep-09 04:40N 31°59' W 014°38'1011.8
2017-Sep-09 03:50N 32°08' W 014°34'811.8
2017-Sep-09 03:08N 32°16' W 014°32'111.9
2017-Sep-09 03:00N 32°17' W 014°32'911.9
2017-Sep-09 02:15N 32°26' W 014°29'411.8
2017-Sep-09 01:57N 32°30' W 014°28'4111.6
2017-Sep-08 22:26N 33°08' W 014°14'511.8
2017-Sep-08 22:00N 33°13' W 014°12'711.7
2017-Sep-08 21:24N 33°20' W 014°10'511.8
2017-Sep-08 21:00N 33°25' W 014°08'711.7
2017-Sep-08 20:25N 33°31' W 014°06'511.6
2017-Sep-08 20:00N 33°36' W 014°05'611.5
2017-Sep-08 19:30N 33°42' W 014°03'611.5
2017-Sep-08 19:00N 33°47' W 014°01'611.6
2017-Sep-08 18:30N 33°52' W 013°59'611.5
2017-Sep-08 17:59N 33°58' W 013°57'611.7
2017-Sep-08 17:29N 34°04' W 013°54'511.6
2017-Sep-08 17:00N 34°09' W 013°53'611.4
2017-Sep-08 16:30N 34°15' W 013°51'611.2
2017-Sep-08 15:57N 34°21' W 013°49'511.0
2017-Sep-08 15:30N 34°25' W 013°47'5 8.0
2017-Sep-08 14:56N 34°30' W 013°45'511.3
2017-Sep-08 14:30N 34°34' W 013°44'611.3
2017-Sep-08 13:57N 34°40' W 013°42'511.0
2017-Sep-08 13:30N 34°45' W 013°40'611.1
2017-Sep-08 13:00N 34°50' W 013°38'611.2
2017-Sep-08 12:30N 34°56' W 013°36'611.2
2017-Sep-08 12:00N 35°01' W 013°35'611.3
2017-Sep-08 11:30N 35°07' W 013°33'611.0
2017-Sep-08 11:00N 35°12' W 013°31'611.2
2017-Sep-08 10:30N 35°17' W 013°29'611.5
2017-Sep-08 09:58N 35°23' W 013°27'511.5
2017-Sep-08 09:30N 35°28' W 013°25'611.3
2017-Sep-08 09:00N 35°34' W 013°23'510.9
2017-Sep-08 08:30N 35°39' W 013°21'511.0
2017-Sep-08 08:00N 35°44' W 013°19'611.1
2017-Sep-08 07:29N 35°50' W 013°17'611.0
2017-Sep-08 06:59N 35°55' W 013°15'811.2
2017-Sep-08 06:18N 36°03' W 013°13'311.4
2017-Sep-08 06:00N 36°06' W 013°12'611.3
2017-Sep-08 05:30N 36°11' W 013°10'611.2
2017-Sep-08 05:00N 36°17' W 013°08'611.3
2017-Sep-08 04:30N 36°22' W 013°06'611.3
2017-Sep-08 04:00N 36°27' W 013°03'611.3
2017-Sep-08 03:30N 36°33' W 013°01'2011.4
2017-Sep-08 01:47N 36°52' W 012°55'411.5
2017-Sep-08 01:27N 36°55' W 012°54'711.4
2017-Sep-08 00:49N 37°02' W 012°52'911.6
2017-Sep-08 00:02N 37°11' W 012°48'011.1
2017-Sep-08 00:00N 37°11' W 012°48'711.5
2017-Sep-07 23:26N 37°18' W 012°46'511.3
2017-Sep-07 23:00N 37°22' W 012°44'611.6
2017-Sep-07 22:30N 37°28' W 012°42'611.8
2017-Sep-07 22:00N 37°33' W 012°40'611.8
2017-Sep-07 21:30N 37°39' W 012°38'612.0
2017-Sep-07 21:00N 37°45' W 012°36'612.1
2017-Sep-07 20:30N 37°51' W 012°33'612.0
2017-Sep-07 20:00N 37°56' W 012°32'611.7
2017-Sep-07 19:30N 38°02' W 012°30'611.6
2017-Sep-07 19:00N 38°07' W 012°27'611.6
2017-Sep-07 18:30N 38°13' W 012°25'611.5
2017-Sep-07 18:00N 38°19' W 012°23'611.5
2017-Sep-07 17:30N 38°24' W 012°21'611.4
2017-Sep-07 17:00N 38°30' W 012°19'811.2
2017-Sep-07 16:14N 38°38' W 012°16'311.5
2017-Sep-07 15:56N 38°41' W 012°15'511.6
2017-Sep-07 15:30N 38°46' W 012°13'611.6
2017-Sep-07 15:00N 38°51' W 012°11'2011.4
2017-Sep-07 13:17N 39°11' W 012°04'311.3
2017-Sep-07 12:59N 39°14' W 012°03'611.6
2017-Sep-07 12:28N 39°20' W 012°01'611.8
2017-Sep-07 12:00N 39°25' W 011°59'611.8
2017-Sep-07 11:29N 39°31' W 011°57'611.7
2017-Sep-07 11:00N 39°36' W 011°55'611.4
2017-Sep-07 10:30N 39°42' W 011°53'611.8
2017-Sep-07 10:00N 39°47' W 011°51'611.8
2017-Sep-07 09:30N 39°53' W 011°49'811.7
2017-Sep-07 08:49N 40°01' W 011°46'711.4
2017-Sep-07 08:12N 40°08' W 011°43'311.5
2017-Sep-07 07:58N 40°10' W 011°42'611.7
2017-Sep-07 07:28N 40°16' W 011°40'1311.6
2017-Sep-07 06:20N 40°28' W 011°35'411.8
2017-Sep-07 05:59N 40°32' W 011°33'611.5
2017-Sep-07 05:30N 40°38' W 011°32'611.2
2017-Sep-07 05:00N 40°43' W 011°30'611.2
2017-Sep-07 04:30N 40°48' W 011°28'611.3
2017-Sep-07 04:00N 40°54' W 011°25'611.4
2017-Sep-07 03:29N 40°59' W 011°23'611.3
2017-Sep-07 03:00N 41°04' W 011°20'50310.9
2017-Sep-05 04:46N 48°34' W 006°03'3 9.2
2017-Sep-05 04:25N 48°37' W 006°01'4 9.1
2017-Sep-05 03:59N 48°40' W 005°58'5 8.9
2017-Sep-05 03:26N 48°44' W 005°55'5 8.9
2017-Sep-05 02:56N 48°48' W 005°51'4 8.8
2017-Sep-05 02:25N 48°52' W 005°48'4 8.5
2017-Sep-05 02:00N 48°55' W 005°44'4 8.9
2017-Sep-05 01:30N 48°57' W 005°38'5 9.0
2017-Sep-05 00:59N 48°60' W 005°32'6 9.5
2017-Sep-05 00:22N 49°03' W 005°25'510.3
2017-Sep-04 23:52N 49°06' W 005°18'410.5
2017-Sep-04 23:30N 49°08' W 005°13'510.7
2017-Sep-04 23:00N 49°10' W 005°06'610.9
2017-Sep-04 22:30N 49°13' W 004°59'611.3
2017-Sep-04 22:00N 49°16' W 004°51'611.6
2017-Sep-04 21:29N 49°19' W 004°43'611.7
2017-Sep-04 21:00N 49°21' W 004°36'711.7
2017-Sep-04 20:26N 49°24' W 004°27'511.3
2017-Sep-04 20:00N 49°27' W 004°20'511.0
2017-Sep-04 19:30N 49°30' W 004°14'510.7
2017-Sep-04 19:00N 49°33' W 004°06'510.2
2017-Sep-04 18:30N 49°36' W 003°60'5 9.9
2017-Sep-04 18:00N 49°38' W 003°53'5 9.8
2017-Sep-04 17:30N 49°40' W 003°46'5 9.7
2017-Sep-04 17:00N 49°43' W 003°40'5 9.7
2017-Sep-04 16:30N 49°45' W 003°34'510.0
2017-Sep-04 16:00N 49°48' W 003°27'510.2
2017-Sep-04 15:30N 49°50' W 003°20'510.8
2017-Sep-04 15:00N 49°53' W 003°13'611.4
2017-Sep-04 14:30N 49°56' W 003°05'612.1
2017-Sep-04 14:00N 49°59' W 002°57'612.5
2017-Sep-04 13:30N 50°01' W 002°48'713.0
2017-Sep-04 13:00N 50°04' W 002°38'713.4
2017-Sep-04 12:29N 50°06' W 002°28'713.5
2017-Sep-04 12:00N 50°08' W 002°18'1213.1
2017-Sep-04 11:04N 50°11' W 001°60'112.6
2017-Sep-04 11:00N 50°11' W 001°59'612.4
2017-Sep-04 10:30N 50°13' W 001°49'611.7
2017-Sep-04 10:01N 50°14' W 001°41'510.9
2017-Sep-04 09:30N 50°15' W 001°32'510.2
2017-Sep-04 09:00N 50°17' W 001°25'5 9.7
2017-Sep-04 08:30N 50°18' W 001°17'5 9.1
2017-Sep-04 08:00N 50°19' W 001°10'4 8.6
2017-Sep-04 07:30N 50°20' W 001°04'8 8.4
2017-Sep-04 06:36N 50°23' W 000°53'1 8.8
2017-Sep-04 06:28N 50°23' W 000°51'11 9.3
2017-Sep-04 05:19N 50°25' W 000°34'410.0
2017-Sep-04 04:57N 50°27' W 000°29'510.6
2017-Sep-04 04:30N 50°28' W 000°22'510.9
2017-Sep-04 04:00N 50°29' W 000°14'611.5
2017-Sep-04 03:30N 50°31' W 000°05'611.7
2017-Sep-04 03:00N 50°33' E 000°04'612.1
2017-Sep-04 02:30N 50°34' E 000°13'612.1
2017-Sep-04 02:00N 50°36' E 000°22'612.0
2017-Sep-04 01:30N 50°37' E 000°31'611.3
2017-Sep-04 01:00N 50°39' E 000°40'611.0
2017-Sep-04 00:30N 50°43' E 000°47'510.4
2017-Sep-04 00:00N 50°46' E 000°53'5 9.8
2017-Sep-03 23:30N 50°49' E 000°59'5 9.3
2017-Sep-03 23:00N 50°52' E 001°05'5 9.1
2017-Sep-03 22:30N 50°55' E 001°10'4 8.7
2017-Sep-03 22:00N 50°58' E 001°15'4 8.4
2017-Sep-03 21:30N 51°01' E 001°20'4 8.8
2017-Sep-03 21:00N 51°04' E 001°25'5 9.9
2017-Sep-03 20:30N 51°07' E 001°31'510.8
2017-Sep-03 20:00N 51°10' E 001°38'611.7
2017-Sep-03 19:30N 51°14' E 001°45'612.7
2017-Sep-03 19:00N 51°19' E 001°51'612.9
2017-Sep-03 18:30N 51°25' E 001°56'612.8
2017-Sep-03 18:00N 51°30' E 002°02'612.7
2017-Sep-03 17:30N 51°35' E 002°09'612.5
2017-Sep-03 17:00N 51°39' E 002°16'26610.9
2017-Sep-02 16:39N 55°32' E 005°51'211.6
2017-Sep-02 16:30N 55°33' E 005°53'611.8
2017-Sep-02 15:59N 55°38' E 005°60'611.8
2017-Sep-02 15:29N 55°43' E 006°07'18811.2
2017-Sep-01 22:38N 57°48' E 010°22'211.4
2017-Sep-01 22:29N 57°48' E 010°25'611.2
2017-Sep-01 21:59N 57°48' E 010°35'610.4
2017-Sep-01 21:23N 57°48' E 010°47'3 7.9
2017-Sep-01 21:00N 57°46' E 010°51'611.2
2017-Sep-01 20:29N 57°42' E 010°58'611.2
2017-Sep-01 19:56N 57°38' E 011°07'511.1
2017-Sep-01 19:30N 57°34' E 011°13'611.5
2017-Sep-01 19:00N 57°30' E 011°21'611.1
2017-Sep-01 18:30N 57°26' E 011°27'510.8
2017-Sep-01 18:00N 57°21' E 011°30'510.7
2017-Sep-01 17:29N 57°15' E 011°33'510.9
2017-Sep-01 17:00N 57°10' E 011°37'711.0
2017-Sep-01 16:20N 57°04' E 011°42'100 9.9
2017-Sep-01 06:14N 55°26' E 010°58'510.1
2017-Sep-01 05:45N 55°22' E 011°02'2 9.9
2017-Sep-01 05:30N 55°20' E 011°02'510.1
2017-Sep-01 04:58N 55°15' E 011°05'4 9.6
2017-Sep-01 04:30N 55°10' E 011°04'510.5
2017-Sep-01 04:00N 55°05' E 011°02'510.4
2017-Sep-01 03:30N 55°00' E 010°59'510.2
2017-Sep-01 03:00N 54°56' E 010°53'510.4
2017-Sep-01 02:30N 54°51' E 010°50'5 9.7
2017-Sep-01 02:00N 54°47' E 010°49'5 9.6
2017-Sep-01 01:30N 54°42' E 010°47'5 9.0
2017-Sep-01 01:00N 54°39' E 010°52'510.1
2017-Sep-01 00:30N 54°36' E 011°00'5 9.9
2017-Sep-01 00:00N 54°36' E 011°09'510.4
2017-Aug-31 23:30N 54°34' E 011°17'510.2
2017-Aug-31 23:00N 54°32' E 011°25'510.3
2017-Aug-31 22:30N 54°30' E 011°33'510.5
2017-Aug-31 22:00N 54°28' E 011°41'510.4
2017-Aug-31 21:30N 54°26' E 011°49'4 7.6
2017-Aug-31 20:57N 54°25' E 011°57'9 8.8
2017-Aug-31 19:58N 54°18' E 012°02'  
Track history (hours):
 
Tides and Currents Weather Stations Pressure Air Temp Water Temp Dewpoint Dewpoint Depression Visibility Wind Speed Wind Dir Waves Ship Positions

Avocet

Last reported at 2017-Sep-10 04:27 UTC. Time now 2017-Nov-20 23:08 UTC.
Position N 27°36' W 016°24'.
Warning: this ship's position is months out of date.

Length 190 m; draft 11.9 m.

Type: Ship. MMSI: 538003819.

Date/timePositionNaut miles runAvg speedWind from/ knotsBaromVisibWave heightAir tempDewpointWater temp
2017-Sep-10 04:27N 27°36' W 016°24'813.1
2017-Sep-10 03:52N 27°44' W 016°22'512.7
2017-Sep-10 03:26N 27°49' W 016°21'512.7
2017-Sep-10 03:00N 27°54' W 016°19'712.3
2017-Sep-10 02:26N 28°01' W 016°17'812.3
2017-Sep-10 01:46N 28°08' W 016°12'312.6
2017-Sep-10 01:30N 28°10' W 016°10'612.7
2017-Sep-10 01:00N 28°15' W 016°05'612.7
2017-Sep-10 00:30N 28°20' W 016°01'612.5
2017-Sep-10 00:00N 28°25' W 015°56'612.1
2017-Sep-09 23:30N 28°30' W 015°52'611.8
2017-Sep-09 23:00N 28°34' W 015°48'611.7
2017-Sep-09 22:30N 28°39' W 015°44'611.8
2017-Sep-09 22:00N 28°45' W 015°42'611.7
2017-Sep-09 21:30N 28°51' W 015°41'611.6
2017-Sep-09 21:00N 28°56' W 015°39'611.5
2017-Sep-09 20:30N 29°02' W 015°37'611.5
2017-Sep-09 20:00N 29°07' W 015°35'611.5
2017-Sep-09 19:30N 29°13' W 015°33'611.6
2017-Sep-09 19:00N 29°18' W 015°31'611.7
2017-Sep-09 18:30N 29°24' W 015°29'611.7
2017-Sep-09 18:00N 29°29' W 015°27'611.4
2017-Sep-09 17:30N 29°35' W 015°26'611.5
2017-Sep-09 17:00N 29°40' W 015°24'611.6
2017-Sep-09 16:30N 29°46' W 015°22'611.7
2017-Sep-09 15:59N 29°52' W 015°20'511.5
2017-Sep-09 15:30N 29°57' W 015°18'611.4
2017-Sep-09 15:00N 30°03' W 015°17'611.4
2017-Sep-09 14:30N 30°08' W 015°15'611.5
2017-Sep-09 14:00N 30°14' W 015°13'611.3
2017-Sep-09 13:30N 30°19' W 015°11'1011.1
2017-Sep-09 12:38N 30°29' W 015°08'211.0
2017-Sep-09 12:27N 30°30' W 015°08'511.0
2017-Sep-09 12:00N 30°35' W 015°06'1111.4
2017-Sep-09 11:01N 30°46' W 015°02'011.8
2017-Sep-09 11:00N 30°46' W 015°02'7511.9
2017-Sep-09 04:40N 31°59' W 014°38'1011.8
2017-Sep-09 03:50N 32°08' W 014°34'811.8
2017-Sep-09 03:08N 32°16' W 014°32'111.9
2017-Sep-09 03:00N 32°17' W 014°32'911.9
2017-Sep-09 02:15N 32°26' W 014°29'411.8
2017-Sep-09 01:57N 32°30' W 014°28'4111.6
2017-Sep-08 22:26N 33°08' W 014°14'511.8
2017-Sep-08 22:00N 33°13' W 014°12'711.7
2017-Sep-08 21:24N 33°20' W 014°10'511.8
2017-Sep-08 21:00N 33°25' W 014°08'711.7
2017-Sep-08 20:25N 33°31' W 014°06'511.6
2017-Sep-08 20:00N 33°36' W 014°05'611.5
2017-Sep-08 19:30N 33°42' W 014°03'611.5
2017-Sep-08 19:00N 33°47' W 014°01'611.6
2017-Sep-08 18:30N 33°52' W 013°59'611.5
2017-Sep-08 17:59N 33°58' W 013°57'611.7
2017-Sep-08 17:29N 34°04' W 013°54'511.6
2017-Sep-08 17:00N 34°09' W 013°53'611.4
2017-Sep-08 16:30N 34°15' W 013°51'611.2
2017-Sep-08 15:57N 34°21' W 013°49'511.0
2017-Sep-08 15:30N 34°25' W 013°47'5 8.0
2017-Sep-08 14:56N 34°30' W 013°45'511.3
2017-Sep-08 14:30N 34°34' W 013°44'611.3
2017-Sep-08 13:57N 34°40' W 013°42'511.0
2017-Sep-08 13:30N 34°45' W 013°40'611.1
2017-Sep-08 13:00N 34°50' W 013°38'611.2
2017-Sep-08 12:30N 34°56' W 013°36'611.2
2017-Sep-08 12:00N 35°01' W 013°35'611.3
2017-Sep-08 11:30N 35°07' W 013°33'611.0
2017-Sep-08 11:00N 35°12' W 013°31'611.2
2017-Sep-08 10:30N 35°17' W 013°29'611.5
2017-Sep-08 09:58N 35°23' W 013°27'511.5
2017-Sep-08 09:30N 35°28' W 013°25'611.3
2017-Sep-08 09:00N 35°34' W 013°23'510.9
2017-Sep-08 08:30N 35°39' W 013°21'511.0
2017-Sep-08 08:00N 35°44' W 013°19'611.1
2017-Sep-08 07:29N 35°50' W 013°17'611.0
2017-Sep-08 06:59N 35°55' W 013°15'811.2
2017-Sep-08 06:18N 36°03' W 013°13'311.4
2017-Sep-08 06:00N 36°06' W 013°12'611.3
2017-Sep-08 05:30N 36°11' W 013°10'611.2
2017-Sep-08 05:00N 36°17' W 013°08'611.3
2017-Sep-08 04:30N 36°22' W 013°06'611.3
2017-Sep-08 04:00N 36°27' W 013°03'611.3
2017-Sep-08 03:30N 36°33' W 013°01'2011.4
2017-Sep-08 01:47N 36°52' W 012°55'411.5
2017-Sep-08 01:27N 36°55' W 012°54'711.4
2017-Sep-08 00:49N 37°02' W 012°52'911.6
2017-Sep-08 00:02N 37°11' W 012°48'011.1
2017-Sep-08 00:00N 37°11' W 012°48'711.5
2017-Sep-07 23:26N 37°18' W 012°46'511.3
2017-Sep-07 23:00N 37°22' W 012°44'611.6
2017-Sep-07 22:30N 37°28' W 012°42'611.8
2017-Sep-07 22:00N 37°33' W 012°40'611.8
2017-Sep-07 21:30N 37°39' W 012°38'612.0
2017-Sep-07 21:00N 37°45' W 012°36'612.1
2017-Sep-07 20:30N 37°51' W 012°33'612.0
2017-Sep-07 20:00N 37°56' W 012°32'611.7
2017-Sep-07 19:30N 38°02' W 012°30'611.6
2017-Sep-07 19:00N 38°07' W 012°27'611.6
2017-Sep-07 18:30N 38°13' W 012°25'611.5
2017-Sep-07 18:00N 38°19' W 012°23'611.5
2017-Sep-07 17:30N 38°24' W 012°21'611.4
2017-Sep-07 17:00N 38°30' W 012°19'811.2
2017-Sep-07 16:14N 38°38' W 012°16'311.5
2017-Sep-07 15:56N 38°41' W 012°15'511.6
2017-Sep-07 15:30N 38°46' W 012°13'611.6
2017-Sep-07 15:00N 38°51' W 012°11'2011.4
2017-Sep-07 13:17N 39°11' W 012°04'311.3
2017-Sep-07 12:59N 39°14' W 012°03'611.6
2017-Sep-07 12:28N 39°20' W 012°01'611.8
2017-Sep-07 12:00N 39°25' W 011°59'611.8
2017-Sep-07 11:29N 39°31' W 011°57'611.7
2017-Sep-07 11:00N 39°36' W 011°55'611.4
2017-Sep-07 10:30N 39°42' W 011°53'611.8
2017-Sep-07 10:00N 39°47' W 011°51'611.8
2017-Sep-07 09:30N 39°53' W 011°49'811.7
2017-Sep-07 08:49N 40°01' W 011°46'711.4
2017-Sep-07 08:12N 40°08' W 011°43'311.5
2017-Sep-07 07:58N 40°10' W 011°42'611.7
2017-Sep-07 07:28N 40°16' W 011°40'1311.6
2017-Sep-07 06:20N 40°28' W 011°35'411.8
2017-Sep-07 05:59N 40°32' W 011°33'611.5
2017-Sep-07 05:30N 40°38' W 011°32'611.2
2017-Sep-07 05:00N 40°43' W 011°30'611.2
2017-Sep-07 04:30N 40°48' W 011°28'611.3
2017-Sep-07 04:00N 40°54' W 011°25'611.4
2017-Sep-07 03:29N 40°59' W 011°23'611.3
2017-Sep-07 03:00N 41°04' W 011°20'50310.9
2017-Sep-05 04:46N 48°34' W 006°03'3 9.2
2017-Sep-05 04:25N 48°37' W 006°01'4 9.1
2017-Sep-05 03:59N 48°40' W 005°58'5 8.9
2017-Sep-05 03:26N 48°44' W 005°55'5 8.9
2017-Sep-05 02:56N 48°48' W 005°51'4 8.8
2017-Sep-05 02:25N 48°52' W 005°48'4 8.5
2017-Sep-05 02:00N 48°55' W 005°44'4 8.9
2017-Sep-05 01:30N 48°57' W 005°38'5 9.0
2017-Sep-05 00:59N 48°60' W 005°32'6 9.5
2017-Sep-05 00:22N 49°03' W 005°25'510.3
2017-Sep-04 23:52N 49°06' W 005°18'410.5
2017-Sep-04 23:30N 49°08' W 005°13'510.7
2017-Sep-04 23:00N 49°10' W 005°06'610.9
2017-Sep-04 22:30N 49°13' W 004°59'611.3
2017-Sep-04 22:00N 49°16' W 004°51'611.6
2017-Sep-04 21:29N 49°19' W 004°43'611.7
2017-Sep-04 21:00N 49°21' W 004°36'711.7
2017-Sep-04 20:26N 49°24' W 004°27'511.3
2017-Sep-04 20:00N 49°27' W 004°20'511.0
2017-Sep-04 19:30N 49°30' W 004°14'510.7
2017-Sep-04 19:00N 49°33' W 004°06'510.2
2017-Sep-04 18:30N 49°36' W 003°60'5 9.9
2017-Sep-04 18:00N 49°38' W 003°53'5 9.8
2017-Sep-04 17:30N 49°40' W 003°46'5 9.7
2017-Sep-04 17:00N 49°43' W 003°40'5 9.7
2017-Sep-04 16:30N 49°45' W 003°34'510.0
2017-Sep-04 16:00N 49°48' W 003°27'510.2
2017-Sep-04 15:30N 49°50' W 003°20'510.8
2017-Sep-04 15:00N 49°53' W 003°13'611.4
2017-Sep-04 14:30N 49°56' W 003°05'612.1
2017-Sep-04 14:00N 49°59' W 002°57'612.5
2017-Sep-04 13:30N 50°01' W 002°48'713.0
2017-Sep-04 13:00N 50°04' W 002°38'713.4
2017-Sep-04 12:29N 50°06' W 002°28'713.5
2017-Sep-04 12:00N 50°08' W 002°18'1213.1
2017-Sep-04 11:04N 50°11' W 001°60'112.6
2017-Sep-04 11:00N 50°11' W 001°59'612.4
2017-Sep-04 10:30N 50°13' W 001°49'611.7
2017-Sep-04 10:01N 50°14' W 001°41'510.9
2017-Sep-04 09:30N 50°15' W 001°32'510.2
2017-Sep-04 09:00N 50°17' W 001°25'5 9.7
2017-Sep-04 08:30N 50°18' W 001°17'5 9.1
2017-Sep-04 08:00N 50°19' W 001°10'4 8.6
2017-Sep-04 07:30N 50°20' W 001°04'8 8.4
2017-Sep-04 06:36N 50°23' W 000°53'1 8.8
2017-Sep-04 06:28N 50°23' W 000°51'11 9.3
2017-Sep-04 05:19N 50°25' W 000°34'410.0
2017-Sep-04 04:57N 50°27' W 000°29'510.6
2017-Sep-04 04:30N 50°28' W 000°22'510.9
2017-Sep-04 04:00N 50°29' W 000°14'611.5
2017-Sep-04 03:30N 50°31' W 000°05'611.7
2017-Sep-04 03:00N 50°33' E 000°04'612.1
2017-Sep-04 02:30N 50°34' E 000°13'612.1
2017-Sep-04 02:00N 50°36' E 000°22'612.0
2017-Sep-04 01:30N 50°37' E 000°31'611.3
2017-Sep-04 01:00N 50°39' E 000°40'611.0
2017-Sep-04 00:30N 50°43' E 000°47'510.4
2017-Sep-04 00:00N 50°46' E 000°53'5 9.8
2017-Sep-03 23:30N 50°49' E 000°59'5 9.3
2017-Sep-03 23:00N 50°52' E 001°05'5 9.1
2017-Sep-03 22:30N 50°55' E 001°10'4 8.7
2017-Sep-03 22:00N 50°58' E 001°15'4 8.4
2017-Sep-03 21:30N 51°01' E 001°20'4 8.8
2017-Sep-03 21:00N 51°04' E 001°25'5 9.9
2017-Sep-03 20:30N 51°07' E 001°31'510.8
2017-Sep-03 20:00N 51°10' E 001°38'611.7
2017-Sep-03 19:30N 51°14' E 001°45'612.7
2017-Sep-03 19:00N 51°19' E 001°51'612.9
2017-Sep-03 18:30N 51°25' E 001°56'612.8
2017-Sep-03 18:00N 51°30' E 002°02'612.7
2017-Sep-03 17:30N 51°35' E 002°09'612.5
2017-Sep-03 17:00N 51°39' E 002°16'26610.9
2017-Sep-02 16:39N 55°32' E 005°51'211.6
2017-Sep-02 16:30N 55°33' E 005°53'611.8
2017-Sep-02 15:59N 55°38' E 005°60'611.8
2017-Sep-02 15:29N 55°43' E 006°07'18811.2
2017-Sep-01 22:38N 57°48' E 010°22'211.4
2017-Sep-01 22:29N 57°48' E 010°25'611.2
2017-Sep-01 21:59N 57°48' E 010°35'610.4
2017-Sep-01 21:23N 57°48' E 010°47'3 7.9
2017-Sep-01 21:00N 57°46' E 010°51'611.2
2017-Sep-01 20:29N 57°42' E 010°58'611.2
2017-Sep-01 19:56N 57°38' E 011°07'511.1
2017-Sep-01 19:30N 57°34' E 011°13'611.5
2017-Sep-01 19:00N 57°30' E 011°21'611.1
2017-Sep-01 18:30N 57°26' E 011°27'510.8
2017-Sep-01 18:00N 57°21' E 011°30'510.7
2017-Sep-01 17:29N 57°15' E 011°33'510.9
2017-Sep-01 17:00N 57°10' E 011°37'711.0
2017-Sep-01 16:20N 57°04' E 011°42'100 9.9
2017-Sep-01 06:14N 55°26' E 010°58'510.1
2017-Sep-01 05:45N 55°22' E 011°02'2 9.9
2017-Sep-01 05:30N 55°20' E 011°02'510.1
2017-Sep-01 04:58N 55°15' E 011°05'4 9.6
2017-Sep-01 04:30N 55°10' E 011°04'510.5
2017-Sep-01 04:00N 55°05' E 011°02'510.4
2017-Sep-01 03:30N 55°00' E 010°59'510.2
2017-Sep-01 03:00N 54°56' E 010°53'510.4
2017-Sep-01 02:30N 54°51' E 010°50'5 9.7
2017-Sep-01 02:00N 54°47' E 010°49'5 9.6
2017-Sep-01 01:30N 54°42' E 010°47'5 9.0
2017-Sep-01 01:00N 54°39' E 010°52'510.1
2017-Sep-01 00:30N 54°36' E 011°00'5 9.9
2017-Sep-01 00:00N 54°36' E 011°09'510.4
2017-Aug-31 23:30N 54°34' E 011°17'510.2
2017-Aug-31 23:00N 54°32' E 011°25'510.3
2017-Aug-31 22:30N 54°30' E 011°33'510.5
2017-Aug-31 22:00N 54°28' E 011°41'510.4
2017-Aug-31 21:30N 54°26' E 011°49'4 7.6
2017-Aug-31 20:57N 54°25' E 011°57'9 8.8
2017-Aug-31 19:58N 54°18' E 012°02'  

Dump ship's entire track history